createdAt,value
2022-11-12T00:01:19.014Z,12.31
2022-11-12T00:04:10.353Z,12.29
2022-11-12T00:07:01.988Z,12.36
2022-11-12T00:09:53.410Z,12.34
2022-11-12T00:12:46.387Z,12.37
2022-11-12T00:15:38.231Z,12.32
2022-11-12T00:18:29.634Z,12.43
2022-11-12T00:21:21.210Z,12.41
2022-11-12T00:24:12.631Z,12.35
2022-11-12T00:27:04.001Z,12.44
2022-11-12T00:29:56.501Z,12.48
2022-11-12T00:32:47.576Z,12.45
2022-11-12T00:35:38.897Z,12.51
2022-11-12T00:38:32.060Z,12.53
2022-11-12T00:41:23.441Z,12.54
2022-11-12T00:44:15.358Z,12.55
2022-11-12T00:47:11.126Z,12.51
2022-11-12T00:50:02.604Z,12.53
2022-11-12T00:52:54.922Z,12.45
2022-11-12T00:55:46.381Z,12.55
2022-11-12T00:58:37.643Z,12.53
2022-11-12T01:01:29.110Z,12.55
2022-11-12T01:04:22.186Z,12.57
2022-11-12T01:07:15.935Z,12.58
2022-11-12T01:10:08.099Z,12.55
2022-11-12T01:12:59.286Z,12.59
2022-11-12T01:15:50.629Z,12.65
2022-11-12T01:18:43.352Z,12.71
2022-11-12T01:21:39.536Z,12.61
2022-11-12T01:24:30.955Z,12.54
2022-11-12T01:27:22.610Z,12.60
2022-11-12T01:30:14.228Z,12.62
2022-11-12T01:33:05.529Z,12.59
2022-11-12T01:35:59.804Z,12.60
2022-11-12T01:38:53.442Z,12.67
2022-11-12T01:41:46.754Z,12.63
2022-11-12T01:44:40.742Z,12.56
2022-11-12T01:47:36.733Z,12.63
2022-11-12T01:50:32.388Z,12.56
2022-11-12T01:53:27.129Z,12.58
2022-11-12T01:56:22.079Z,12.63
2022-11-12T01:59:18.238Z,12.57
2022-11-12T02:02:10.848Z,12.55
2022-11-12T02:05:03.944Z,12.58
2022-11-12T02:07:58.324Z,12.57
2022-11-12T02:10:49.706Z,12.63
2022-11-12T02:14:03.011Z,12.59
2022-11-12T02:16:54.937Z,12.58
2022-11-12T02:19:48.078Z,12.65
2022-11-12T02:22:43.877Z,12.62
2022-11-12T02:25:36.273Z,12.57
2022-11-12T02:28:29.589Z,12.56
2022-11-12T02:31:21.159Z,12.59
2022-11-12T02:34:12.895Z,12.58
2022-11-12T02:37:04.379Z,12.55
2022-11-12T02:39:57.037Z,12.57
2022-11-12T02:42:48.591Z,12.60
2022-11-12T02:45:39.869Z,12.59
2022-11-12T02:48:31.457Z,12.58
2022-11-12T02:51:23.591Z,12.55
2022-11-12T02:54:15.018Z,12.61
2022-11-12T02:57:07.702Z,12.54
2022-11-12T02:59:58.975Z,12.58
2022-11-12T03:02:59.305Z,12.57
2022-11-12T03:05:57.595Z,12.58
2022-11-12T03:08:48.763Z,12.61
2022-11-12T03:11:43.420Z,12.54
2022-11-12T03:14:36.461Z,12.57
2022-11-12T03:17:27.546Z,12.57
2022-11-12T03:20:19.680Z,12.73
2022-11-12T03:23:12.545Z,12.68
2022-11-12T03:26:05.581Z,12.67
2022-11-12T03:28:57.095Z,12.67
2022-11-12T03:31:49.839Z,12.65
2022-11-12T03:34:41.065Z,12.64
2022-11-12T03:37:32.152Z,12.68
2022-11-12T03:40:25.935Z,12.66
2022-11-12T03:43:17.250Z,12.72
2022-11-12T03:46:08.750Z,12.73
2022-11-12T03:49:02.703Z,12.64
2022-11-12T03:51:54.198Z,12.64
2022-11-12T03:54:45.789Z,12.68
2022-11-12T03:57:37.199Z,12.62
2022-11-12T04:00:30.082Z,12.64
2022-11-12T04:03:21.203Z,12.61
2022-11-12T04:06:31.959Z,12.62
2022-11-12T04:09:23.327Z,12.60
2022-11-12T04:12:28.287Z,12.52
2022-11-12T04:15:19.438Z,12.55
2022-11-12T04:18:28.861Z,12.47
2022-11-12T04:21:39.728Z,12.42
2022-11-12T04:24:51.311Z,12.39
2022-11-12T04:27:42.879Z,12.38
2022-11-12T04:30:33.201Z,12.33
2022-11-12T04:33:27.100Z,12.34
2022-11-12T04:36:18.853Z,12.28
2022-11-12T04:39:13.768Z,12.33
2022-11-12T04:42:26.976Z,12.23
2022-11-12T04:45:18.384Z,12.23
2022-11-12T04:48:10.109Z,12.26
2022-11-12T04:51:03.625Z,12.29
2022-11-12T04:53:55.352Z,12.27
2022-11-12T04:56:48.371Z,12.22
2022-11-12T04:59:41.549Z,12.22
2022-11-12T05:02:33.115Z,12.20
2022-11-12T05:05:24.230Z,12.22
2022-11-12T05:08:15.750Z,12.12
2022-11-12T05:11:12.501Z,12.10
2022-11-12T05:14:05.740Z,12.08
2022-11-12T05:16:57.026Z,11.99
2022-11-12T05:19:48.621Z,12.04
2022-11-12T05:22:47.883Z,12.05
2022-11-12T05:25:46.158Z,12.01
2022-11-12T05:28:37.830Z,12.09
2022-11-12T05:31:33.271Z,11.91
2022-11-12T05:34:25.626Z,11.88
2022-11-12T05:37:17.529Z,11.84
2022-11-12T05:40:10.321Z,11.85
2022-11-12T05:43:02.087Z,11.82
2022-11-12T05:45:53.537Z,11.78
2022-11-12T05:48:46.263Z,11.73
2022-11-12T05:51:38.959Z,11.78
2022-11-12T05:54:30.479Z,11.71
2022-11-12T05:57:21.732Z,11.67
2022-11-12T06:00:17.111Z,11.64
2022-11-12T06:03:09.581Z,11.68
2022-11-12T06:06:02.616Z,11.68
2022-11-12T06:08:54.019Z,11.71
2022-11-12T06:11:45.383Z,11.69
2022-11-12T06:14:37.246Z,11.61
2022-11-12T06:17:28.701Z,11.57
2022-11-12T06:20:20.189Z,11.60
2022-11-12T06:23:12.771Z,11.58
2022-11-12T06:26:04.612Z,11.55
2022-11-12T06:28:56.623Z,11.57
2022-11-12T06:31:48.041Z,11.47
2022-11-12T06:34:39.253Z,11.47
2022-11-12T06:37:30.435Z,11.44
2022-11-12T06:40:23.273Z,11.49
2022-11-12T06:43:14.711Z,11.45
2022-11-12T06:46:08.108Z,11.37
2022-11-12T06:48:59.493Z,11.35
2022-11-12T06:51:52.258Z,11.35
2022-11-12T06:54:43.570Z,11.37
2022-11-12T06:57:36.646Z,11.37
2022-11-12T07:00:28.127Z,11.34
2022-11-12T07:03:19.577Z,11.35
2022-11-12T07:06:12.791Z,11.28
2022-11-12T07:09:04.341Z,11.28
2022-11-12T07:11:55.745Z,11.29
2022-11-12T07:14:48.440Z,11.29
2022-11-12T07:17:39.482Z,11.24
2022-11-12T07:20:30.567Z,11.23
2022-11-12T07:23:21.789Z,11.23
2022-11-12T07:26:15.146Z,11.25
2022-11-12T07:29:07.227Z,11.22
2022-11-12T07:32:00.037Z,11.19
2022-11-12T07:34:51.454Z,11.15
2022-11-12T07:37:43.178Z,11.13
2022-11-12T07:40:34.917Z,11.12
2022-11-12T07:43:26.365Z,11.09
2022-11-12T07:46:22.592Z,11.13
2022-11-12T07:49:15.654Z,11.10
2022-11-12T07:52:06.867Z,11.12
2022-11-12T07:54:58.072Z,11.10
2022-11-12T07:57:49.285Z,11.10
2022-11-12T08:00:40.595Z,11.08
2022-11-12T08:03:31.828Z,11.11
2022-11-12T08:06:24.915Z,11.07
2022-11-12T08:09:16.614Z,11.06
2022-11-12T08:12:08.476Z,11.11
2022-11-12T08:15:00.679Z,11.12
2022-11-12T08:17:52.090Z,11.11
2022-11-12T08:20:43.739Z,11.12
2022-11-12T08:23:36.486Z,11.17
2022-11-12T08:26:27.750Z,11.14
2022-11-12T08:29:19.138Z,11.26
2022-11-12T08:32:10.888Z,11.26
2022-11-12T08:35:02.563Z,11.29
2022-11-12T08:37:58.351Z,11.29
2022-11-12T08:40:50.759Z,11.34
2022-11-12T08:43:43.215Z,11.39
2022-11-12T08:46:34.600Z,11.43
2022-11-12T08:49:26.308Z,11.45
2022-11-12T08:52:17.801Z,11.60
2022-11-12T08:55:10.298Z,11.50
2022-11-12T08:58:03.830Z,11.55
2022-11-12T09:00:55.644Z,11.59
2022-11-12T09:03:46.819Z,11.65
2022-11-12T09:06:38.084Z,11.80
2022-11-12T09:09:29.609Z,11.78
2022-11-12T09:12:21.530Z,11.73
2022-11-12T09:18:26.032Z,11.88
2022-11-12T09:21:19.294Z,11.91
2022-11-12T09:24:10.795Z,12.01
2022-11-12T09:27:02.099Z,12.06
2022-11-12T09:29:53.648Z,12.17
2022-11-12T09:32:46.435Z,12.21
2022-11-12T09:35:37.685Z,12.32
2022-11-12T09:38:29.417Z,12.42
2022-11-12T09:41:26.724Z,12.51
2022-11-12T09:44:20.357Z,12.50
2022-11-12T09:47:20.348Z,12.63
2022-11-12T09:50:21.427Z,12.61
2022-11-12T09:53:18.588Z,12.72
2022-11-12T09:56:13.958Z,12.77
2022-11-12T09:59:13.411Z,12.91
2022-11-12T10:02:23.329Z,12.97
2022-11-12T10:05:28.103Z,13.02
2022-11-12T10:08:35.627Z,13.14
2022-11-12T10:12:04.204Z,13.34
2022-11-12T10:15:34.670Z,13.54
2022-11-12T10:18:37.371Z,13.70
2022-11-12T10:21:37.103Z,13.66
2022-11-12T10:24:35.272Z,13.85
2022-11-12T10:27:35.937Z,13.94
2022-11-12T10:30:27.567Z,13.99
2022-11-12T10:33:18.871Z,14.03
2022-11-12T10:36:22.719Z,14.17
2022-11-12T10:39:33.295Z,14.29
2022-11-12T10:42:24.934Z,14.37
2022-11-12T10:45:21.824Z,14.53
2022-11-12T10:48:27.007Z,14.51
2022-11-12T10:51:39.773Z,14.63
2022-11-12T10:54:38.383Z,14.79
2022-11-12T10:57:30.172Z,14.87
2022-11-12T11:00:22.764Z,15.07
2022-11-12T11:03:21.794Z,15.19
2022-11-12T11:06:23.131Z,15.15
2022-11-12T11:09:20.590Z,15.24
2022-11-12T11:12:24.655Z,15.20
2022-11-12T11:15:21.277Z,15.32
2022-11-12T11:18:14.396Z,15.38
2022-11-12T11:21:24.723Z,15.37
2022-11-12T11:24:28.005Z,15.57
2022-11-12T11:27:30.438Z,15.59
2022-11-12T11:30:23.025Z,15.54
2022-11-12T11:33:32.006Z,15.72
2022-11-12T11:36:30.087Z,15.67
2022-11-12T11:39:30.962Z,15.71
2022-11-12T11:42:42.807Z,15.67
2022-11-12T11:45:49.936Z,15.76
2022-11-12T11:48:54.689Z,15.77
2022-11-12T11:51:53.426Z,15.74
2022-11-12T11:55:01.354Z,15.80
2022-11-12T11:58:03.475Z,15.63
2022-11-12T12:01:06.067Z,15.59
2022-11-12T12:04:21.147Z,15.60
2022-11-12T12:07:25.995Z,15.57
2022-11-12T12:10:34.742Z,15.36
2022-11-12T12:13:47.166Z,15.38
2022-11-12T12:16:48.793Z,15.36
2022-11-12T12:19:52.598Z,15.32
2022-11-12T12:22:50.301Z,15.29
2022-11-12T12:25:44.353Z,15.23
2022-11-12T12:28:42.527Z,15.17
2022-11-12T12:31:41.083Z,15.14
2022-11-12T12:34:34.150Z,15.06
2022-11-12T12:37:36.623Z,15.04
2022-11-12T12:40:35.951Z,15.01
2022-11-12T12:43:33.819Z,14.96
2022-11-12T12:46:29.988Z,14.88
2022-11-12T12:49:29.455Z,14.85
2022-11-12T12:52:20.924Z,14.88
2022-11-12T12:55:36.355Z,14.85
2022-11-12T12:58:29.879Z,14.82
2022-11-12T13:01:33.239Z,14.78
2022-11-12T13:04:54.834Z,14.72
2022-11-12T13:07:49.127Z,14.68
2022-11-12T13:10:52.105Z,14.61
2022-11-12T13:13:43.788Z,14.64
2022-11-12T13:17:01.769Z,14.62
2022-11-12T13:20:18.567Z,14.57
2022-11-12T13:23:13.358Z,14.61
2022-11-12T13:26:44.022Z,14.61
2022-11-12T13:29:43.726Z,14.55
2022-11-12T13:32:42.893Z,14.59
2022-11-12T13:35:36.262Z,14.51
2022-11-12T13:38:27.757Z,14.52
2022-11-12T13:41:43.323Z,14.55
2022-11-12T13:44:36.369Z,14.54
2022-11-12T13:47:29.297Z,14.54
2022-11-12T13:50:24.391Z,14.49
2022-11-12T13:53:21.886Z,14.50
2022-11-12T13:56:29.173Z,14.45
2022-11-12T13:59:22.909Z,14.49
2022-11-12T14:02:23.739Z,14.44
2022-11-12T14:05:17.545Z,14.42
2022-11-12T14:08:23.834Z,14.42
2022-11-12T14:11:51.250Z,14.45
2022-11-12T14:15:01.135Z,14.45
2022-11-12T14:18:03.177Z,14.43
2022-11-12T14:20:54.652Z,14.43
2022-11-12T14:23:49.596Z,14.42
2022-11-12T14:26:42.490Z,14.42
2022-11-12T14:29:36.915Z,14.42
2022-11-12T14:32:36.931Z,14.43
2022-11-12T14:35:34.607Z,14.45
2022-11-12T14:38:30.346Z,14.39
2022-11-12T14:41:26.480Z,14.43
2022-11-12T14:44:22.508Z,14.39
2022-11-12T14:47:13.683Z,14.41
2022-11-12T14:50:06.219Z,14.37
2022-11-12T14:53:03.586Z,14.38
2022-11-12T14:55:57.065Z,14.38
2022-11-12T14:58:50.609Z,14.35
2022-11-12T15:05:17.940Z,14.37
2022-11-12T15:08:12.844Z,14.38
2022-11-12T15:11:22.256Z,14.32
2022-11-12T15:14:22.554Z,14.28
2022-11-12T15:17:29.818Z,14.26
2022-11-12T15:20:22.670Z,14.25
2022-11-12T15:23:18.833Z,14.26
2022-11-12T15:26:16.424Z,14.19
2022-11-12T15:29:16.597Z,14.21
2022-11-12T15:32:32.203Z,14.19
2022-11-12T15:35:36.887Z,14.27
2022-11-12T15:38:32.608Z,14.23
2022-11-12T15:41:26.139Z,14.18
2022-11-12T15:44:19.760Z,14.17
2022-11-12T15:47:21.688Z,14.16
2022-11-12T15:50:17.203Z,14.14
2022-11-12T15:53:10.278Z,14.09
2022-11-12T15:56:03.278Z,14.10
2022-11-12T15:58:54.799Z,14.06
2022-11-12T16:01:46.688Z,14.06
2022-11-12T16:04:38.008Z,14.00
2022-11-12T16:07:29.190Z,14.00
2022-11-12T16:10:21.759Z,13.99
2022-11-12T16:13:16.551Z,13.96
2022-11-12T16:16:08.617Z,13.94
2022-11-12T16:19:00.044Z,13.89
2022-11-12T16:21:51.264Z,13.88
2022-11-12T16:24:43.666Z,13.86
2022-11-12T16:27:39.366Z,13.80
2022-11-12T16:30:35.900Z,13.81
2022-11-12T16:33:27.505Z,13.74
2022-11-12T16:36:19.209Z,13.75
2022-11-12T16:39:12.748Z,13.72
2022-11-12T16:42:04.579Z,13.75
2022-11-12T16:45:00.492Z,13.54
2022-11-12T16:47:54.400Z,13.49
2022-11-12T16:50:46.043Z,13.55
2022-11-12T16:53:37.491Z,13.46
2022-11-12T16:56:28.695Z,13.44
2022-11-12T16:59:22.744Z,13.44
2022-11-12T17:02:16.945Z,13.45
2022-11-12T17:05:13.178Z,13.45
2022-11-12T17:08:04.557Z,13.36
2022-11-12T17:10:56.792Z,13.38
2022-11-12T17:13:48.162Z,13.40
2022-11-12T17:16:40.013Z,13.35
2022-11-12T17:19:32.681Z,13.24
2022-11-12T17:22:24.319Z,13.28
2022-11-12T17:25:15.732Z,13.24
2022-11-12T17:28:07.156Z,13.09
2022-11-12T17:31:10.603Z,13.11
2022-11-12T17:34:01.665Z,13.07
2022-11-12T17:36:54.776Z,13.07
2022-11-12T17:39:46.479Z,13.04
2022-11-12T17:42:37.671Z,13.00
2022-11-12T17:45:30.055Z,13.03
2022-11-12T17:48:22.353Z,12.95
2022-11-12T17:51:15.779Z,12.99
2022-11-12T17:54:15.214Z,12.97
2022-11-12T17:57:06.609Z,12.88
2022-11-12T17:59:57.833Z,12.91
2022-11-12T18:02:49.140Z,12.85
2022-11-12T18:05:40.726Z,12.87
2022-11-12T18:08:32.338Z,12.88
2022-11-12T18:11:27.075Z,12.86
2022-11-12T18:14:19.046Z,12.83
2022-11-12T18:17:10.453Z,12.81
2022-11-12T18:20:01.682Z,12.80
2022-11-12T18:22:52.776Z,12.74
2022-11-12T18:25:44.518Z,12.77
2022-11-12T18:28:37.516Z,12.64
2022-11-12T18:31:29.591Z,12.66
2022-11-12T18:34:20.653Z,12.66
2022-11-12T18:37:12.095Z,12.61
2022-11-12T18:40:03.709Z,12.61
2022-11-12T18:42:55.064Z,12.65
2022-11-12T18:45:57.750Z,12.52
2022-11-12T18:48:49.612Z,12.57
2022-11-12T18:51:44.240Z,12.55
2022-11-12T18:54:35.588Z,12.55
2022-11-12T18:57:26.920Z,12.51
2022-11-12T19:00:19.100Z,12.47
2022-11-12T19:03:11.810Z,12.45
2022-11-12T19:06:05.321Z,12.46
2022-11-12T19:09:02.755Z,12.47
2022-11-12T19:11:54.975Z,12.52
2022-11-12T19:14:46.229Z,12.51
2022-11-12T19:17:37.720Z,12.44
2022-11-12T19:20:31.239Z,12.42
2022-11-12T19:23:25.684Z,12.41
2022-11-12T19:26:19.049Z,12.42
2022-11-12T19:29:10.395Z,12.43
2022-11-12T19:32:02.041Z,12.41
2022-11-12T19:34:53.552Z,12.35
2022-11-12T19:37:47.960Z,12.29
2022-11-12T19:40:40.226Z,12.32
2022-11-12T19:43:32.026Z,12.27
2022-11-12T19:46:25.597Z,12.32
2022-11-12T19:49:19.843Z,12.32
2022-11-12T19:52:11.630Z,12.24
2022-11-12T19:55:05.303Z,12.23
2022-11-12T19:57:57.182Z,12.24
2022-11-12T20:00:51.449Z,12.25
2022-11-12T20:03:44.369Z,12.27
2022-11-12T20:06:38.551Z,12.20
2022-11-12T20:09:33.684Z,12.20
2022-11-12T20:12:27.280Z,12.21
2022-11-12T20:15:19.630Z,12.22
2022-11-12T20:18:14.183Z,12.11
2022-11-12T20:21:14.591Z,12.15
2022-11-12T20:24:10.100Z,12.15
2022-11-12T20:27:02.679Z,12.09
2022-11-12T20:29:55.403Z,12.03
2022-11-12T20:32:47.665Z,12.06
2022-11-12T20:35:39.405Z,12.04
2022-11-12T20:38:31.568Z,12.03
2022-11-12T20:41:27.006Z,12.06
2022-11-12T20:44:19.088Z,12.01
2022-11-12T20:47:11.847Z,12.01
2022-11-12T20:50:03.943Z,11.96
2022-11-12T20:52:55.683Z,11.94
2022-11-12T20:55:48.537Z,11.96
2022-11-12T20:58:50.731Z,11.93
2022-11-12T21:01:49.123Z,11.91
2022-11-12T21:04:48.953Z,11.88
2022-11-12T21:07:42.781Z,11.82
2022-11-12T21:11:14.874Z,11.82
2022-11-12T21:14:06.834Z,11.84
2022-11-12T21:16:58.654Z,11.80
2022-11-12T21:19:53.254Z,11.75
2022-11-12T21:22:45.308Z,11.73
2022-11-12T21:25:37.309Z,11.75
2022-11-12T21:28:30.202Z,11.75
2022-11-12T21:31:24.511Z,11.70
2022-11-12T21:34:16.255Z,11.68
2022-11-12T21:37:09.114Z,11.65
2022-11-12T21:40:00.514Z,11.61
2022-11-12T21:42:52.356Z,11.61
2022-11-12T21:45:46.496Z,11.67
2022-11-12T21:48:38.082Z,11.58
2022-11-12T21:51:30.975Z,11.56
2022-11-12T21:54:24.092Z,11.55
2022-11-12T21:57:18.805Z,11.69
2022-11-12T22:00:40.922Z,11.62
2022-11-12T22:03:31.675Z,11.58
2022-11-12T22:06:25.402Z,11.60
2022-11-12T22:09:23.026Z,11.52
2022-11-12T22:12:19.192Z,11.51
2022-11-12T22:15:12.732Z,11.57
2022-11-12T22:18:04.497Z,11.55
2022-11-12T22:21:01.699Z,11.59
2022-11-12T22:23:53.841Z,11.55
2022-11-12T22:26:45.741Z,11.52
2022-11-12T22:29:38.713Z,11.55
2022-11-12T22:32:30.396Z,11.49
2022-11-12T22:35:22.617Z,11.48
2022-11-12T22:38:19.429Z,11.49
2022-11-12T22:41:16.064Z,11.47
2022-11-12T22:44:07.639Z,11.56
2022-11-12T22:47:00.448Z,11.48
2022-11-12T22:49:52.168Z,11.53
2022-11-12T22:52:49.861Z,11.48
2022-11-12T22:55:44.352Z,11.46
2022-11-12T22:58:44.714Z,11.49
2022-11-12T23:01:37.218Z,11.44
2022-11-12T23:04:33.327Z,11.45
2022-11-12T23:07:45.921Z,11.40
2022-11-12T23:10:42.949Z,11.42
2022-11-12T23:13:38.540Z,11.35
2022-11-12T23:16:31.800Z,11.42
2022-11-12T23:19:26.657Z,11.34
2022-11-12T23:22:20.172Z,11.37
2022-11-12T23:25:14.951Z,11.37
2022-11-12T23:28:20.370Z,11.35
2022-11-12T23:31:18.279Z,11.33
2022-11-12T23:34:18.195Z,11.27
2022-11-12T23:37:14.764Z,11.30
2022-11-12T23:40:24.300Z,11.31
2022-11-12T23:43:26.200Z,11.31
2022-11-12T23:46:18.065Z,11.29
2022-11-12T23:49:09.578Z,11.23
2022-11-12T23:52:02.811Z,11.24
2022-11-12T23:54:57.061Z,11.25
2022-11-12T23:57:51.546Z,11.26
